sensor_id;sensor_type;location;lat;lon;timestamp;P1;durP1;ratioP1;P2;durP2;ratioP2
67248;SDS011;63247;54.300;18.592;2022-11-18T00:00:14;23.73;;;6.80;;
67248;SDS011;63247;54.300;18.592;2022-11-18T00:02:40;20.45;;;6.60;;
67248;SDS011;63247;54.300;18.592;2022-11-18T00:05:06;15.50;;;6.30;;
67248;SDS011;63247;54.300;18.592;2022-11-18T00:07:31;22.80;;;7.40;;
67248;SDS011;63247;54.300;18.592;2022-11-18T00:09:56;12.77;;;3.93;;
67248;SDS011;63247;54.300;18.592;2022-11-18T00:12:22;18.13;;;5.28;;
67248;SDS011;63247;54.300;18.592;2022-11-18T00:15:06;18.93;;;5.70;;
67248;SDS011;63247;54.300;18.592;2022-11-18T00:17:32;14.75;;;5.00;;
67248;SDS011;63247;54.300;18.592;2022-11-18T00:19:57;23.43;;;7.27;;
67248;SDS011;63247;54.300;18.592;2022-11-18T00:22:25;25.58;;;7.15;;
67248;SDS011;63247;54.300;18.592;2022-11-18T00:24:51;14.50;;;4.67;;
67248;SDS011;63247;54.300;18.592;2022-11-18T00:27:16;7.78;;;3.05;;
67248;SDS011;63247;54.300;18.592;2022-11-18T00:29:42;12.23;;;3.80;;
67248;SDS011;63247;54.300;18.592;2022-11-18T00:32:07;10.40;;;3.17;;
67248;SDS011;63247;54.300;18.592;2022-11-18T00:34:33;9.40;;;3.60;;
67248;SDS011;63247;54.300;18.592;2022-11-18T00:36:58;12.15;;;4.30;;
67248;SDS011;63247;54.300;18.592;2022-11-18T00:39:24;11.15;;;3.70;;
67248;SDS011;63247;54.300;18.592;2022-11-18T00:41:50;13.05;;;3.15;;
67248;SDS011;63247;54.300;18.592;2022-11-18T00:44:34;11.17;;;3.43;;
67248;SDS011;63247;54.300;18.592;2022-11-18T00:46:59;9.00;;;2.67;;
67248;SDS011;63247;54.300;18.592;2022-11-18T00:49:25;7.77;;;2.50;;
67248;SDS011;63247;54.300;18.592;2022-11-18T00:51:50;5.83;;;2.17;;
67248;SDS011;63247;54.300;18.592;2022-11-18T00:54:16;6.18;;;1.70;;
67248;SDS011;63247;54.300;18.592;2022-11-18T00:56:41;5.10;;;1.53;;
67248;SDS011;63247;54.300;18.592;2022-11-18T00:59:07;5.43;;;1.53;;
67248;SDS011;63247;54.300;18.592;2022-11-18T01:01:32;5.33;;;1.30;;
67248;SDS011;63247;54.300;18.592;2022-11-18T01:03:58;5.65;;;1.63;;
67248;SDS011;63247;54.300;18.592;2022-11-18T01:06:24;4.38;;;1.45;;
67248;SDS011;63247;54.300;18.592;2022-11-18T01:08:50;3.33;;;0.90;;
67248;SDS011;63247;54.300;18.592;2022-11-18T01:11:15;7.18;;;1.42;;
67248;SDS011;63247;54.300;18.592;2022-11-18T01:14:00;5.05;;;1.50;;
67248;SDS011;63247;54.300;18.592;2022-11-18T01:16:26;5.13;;;1.40;;
67248;SDS011;63247;54.300;18.592;2022-11-18T01:18:52;4.57;;;1.27;;
67248;SDS011;63247;54.300;18.592;2022-11-18T01:21:18;4.90;;;1.13;;
67248;SDS011;63247;54.300;18.592;2022-11-18T01:23:43;5.20;;;1.58;;
67248;SDS011;63247;54.300;18.592;2022-11-18T01:26:11;5.50;;;1.67;;
67248;SDS011;63247;54.300;18.592;2022-11-18T01:28:38;4.38;;;1.23;;
67248;SDS011;63247;54.300;18.592;2022-11-18T01:31:04;4.93;;;1.20;;
67248;SDS011;63247;54.300;18.592;2022-11-18T01:33:30;5.40;;;1.30;;
67248;SDS011;63247;54.300;18.592;2022-11-18T01:35:55;5.10;;;1.70;;
67248;SDS011;63247;54.300;18.592;2022-11-18T01:38:21;6.03;;;1.37;;
67248;SDS011;63247;54.300;18.592;2022-11-18T01:40:46;4.80;;;1.70;;
67248;SDS011;63247;54.300;18.592;2022-11-18T01:43:13;4.03;;;1.30;;
67248;SDS011;63247;54.300;18.592;2022-11-18T01:45:40;4.00;;;1.40;;
67248;SDS011;63247;54.300;18.592;2022-11-18T01:48:09;5.25;;;1.55;;
67248;SDS011;63247;54.300;18.592;2022-11-18T01:50:51;5.43;;;1.40;;
67248;SDS011;63247;54.300;18.592;2022-11-18T01:53:25;4.82;;;1.25;;
67248;SDS011;63247;54.300;18.592;2022-11-18T01:55:56;6.53;;;1.73;;
67248;SDS011;63247;54.300;18.592;2022-11-18T02:00:51;6.40;;;2.08;;
67248;SDS011;63247;54.300;18.592;2022-11-18T02:03:18;6.93;;;1.90;;
67248;SDS011;63247;54.300;18.592;2022-11-18T02:05:45;8.27;;;2.47;;
67248;SDS011;63247;54.300;18.592;2022-11-18T02:08:13;9.38;;;2.88;;
67248;SDS011;63247;54.300;18.592;2022-11-18T02:10:41;7.17;;;1.63;;
67248;SDS011;63247;54.300;18.592;2022-11-18T02:13:07;7.47;;;1.88;;
67248;SDS011;63247;54.300;18.592;2022-11-18T02:15:36;9.27;;;1.90;;
67248;SDS011;63247;54.300;18.592;2022-11-18T02:18:19;6.55;;;1.88;;
67248;SDS011;63247;54.300;18.592;2022-11-18T02:20:50;7.57;;;2.05;;
67248;SDS011;63247;54.300;18.592;2022-11-18T02:29:20;9.60;;;2.83;;
67248;SDS011;63247;54.300;18.592;2022-11-18T02:34:47;7.03;;;2.30;;
67248;SDS011;63247;54.300;18.592;2022-11-18T02:37:30;9.73;;;2.60;;
67248;SDS011;63247;54.300;18.592;2022-11-18T02:42:36;7.80;;;2.30;;
67248;SDS011;63247;54.300;18.592;2022-11-18T02:45:05;7.68;;;2.05;;
67248;SDS011;63247;54.300;18.592;2022-11-18T02:47:32;11.57;;;2.65;;
67248;SDS011;63247;54.300;18.592;2022-11-18T02:50:05;8.95;;;2.30;;
67248;SDS011;63247;54.300;18.592;2022-11-18T02:52:35;9.88;;;2.58;;
67248;SDS011;63247;54.300;18.592;2022-11-18T02:55:03;7.60;;;2.07;;
67248;SDS011;63247;54.300;18.592;2022-11-18T02:57:32;10.27;;;2.65;;
67248;SDS011;63247;54.300;18.592;2022-11-18T02:59:59;9.52;;;2.63;;
67248;SDS011;63247;54.300;18.592;2022-11-18T03:02:24;9.07;;;2.60;;
67248;SDS011;63247;54.300;18.592;2022-11-18T03:04:51;10.80;;;3.30;;
67248;SDS011;63247;54.300;18.592;2022-11-18T03:07:21;13.73;;;3.00;;
67248;SDS011;63247;54.300;18.592;2022-11-18T03:09:54;12.25;;;3.55;;
67248;SDS011;63247;54.300;18.592;2022-11-18T03:18:05;10.32;;;2.80;;
67248;SDS011;63247;54.300;18.592;2022-11-18T03:20:54;8.23;;;2.90;;
67248;SDS011;63247;54.300;18.592;2022-11-18T03:23:31;12.05;;;3.10;;
67248;SDS011;63247;54.300;18.592;2022-11-18T03:26:18;11.18;;;3.03;;
67248;SDS011;63247;54.300;18.592;2022-11-18T03:28:49;10.05;;;3.15;;
67248;SDS011;63247;54.300;18.592;2022-11-18T03:34:04;12.90;;;3.70;;
67248;SDS011;63247;54.300;18.592;2022-11-18T03:36:36;11.88;;;3.42;;
67248;SDS011;63247;54.300;18.592;2022-11-18T03:39:05;9.80;;;3.20;;
67248;SDS011;63247;54.300;18.592;2022-11-18T03:41:35;8.75;;;3.08;;
67248;SDS011;63247;54.300;18.592;2022-11-18T03:44:05;15.77;;;4.15;;
67248;SDS011;63247;54.300;18.592;2022-11-18T03:46:35;12.07;;;3.73;;
67248;SDS011;63247;54.300;18.592;2022-11-18T03:49:10;8.57;;;2.50;;
67248;SDS011;63247;54.300;18.592;2022-11-18T03:51:44;12.25;;;3.42;;
67248;SDS011;63247;54.300;18.592;2022-11-18T03:54:15;11.07;;;3.42;;
67248;SDS011;63247;54.300;18.592;2022-11-18T03:56:46;11.13;;;3.33;;
67248;SDS011;63247;54.300;18.592;2022-11-18T03:59:20;10.43;;;3.40;;
67248;SDS011;63247;54.300;18.592;2022-11-18T04:02:35;7.72;;;2.38;;
67248;SDS011;63247;54.300;18.592;2022-11-18T04:04:38;11.10;;;2.83;;
67248;SDS011;63247;54.300;18.592;2022-11-18T04:07:09;10.43;;;2.92;;
67248;SDS011;63247;54.300;18.592;2022-11-18T04:09:53;10.85;;;3.20;;
67248;SDS011;63247;54.300;18.592;2022-11-18T04:12:29;8.97;;;2.80;;
67248;SDS011;63247;54.300;18.592;2022-11-18T04:14:57;11.23;;;3.78;;
67248;SDS011;63247;54.300;18.592;2022-11-18T04:17:25;8.50;;;2.67;;
67248;SDS011;63247;54.300;18.592;2022-11-18T04:19:52;16.92;;;3.67;;
67248;SDS011;63247;54.300;18.592;2022-11-18T04:22:18;13.77;;;4.47;;
67248;SDS011;63247;54.300;18.592;2022-11-18T04:24:45;8.65;;;2.50;;
67248;SDS011;63247;54.300;18.592;2022-11-18T04:27:10;8.13;;;2.80;;
67248;SDS011;63247;54.300;18.592;2022-11-18T04:29:37;15.43;;;3.05;;
67248;SDS011;63247;54.300;18.592;2022-11-18T04:32:02;10.57;;;3.33;;
67248;SDS011;63247;54.300;18.592;2022-11-18T04:34:29;12.15;;;3.78;;
67248;SDS011;63247;54.300;18.592;2022-11-18T04:36:55;10.60;;;3.75;;
67248;SDS011;63247;54.300;18.592;2022-11-18T04:39:20;11.60;;;3.20;;
67248;SDS011;63247;54.300;18.592;2022-11-18T04:41:46;12.93;;;4.13;;
67248;SDS011;63247;54.300;18.592;2022-11-18T04:44:28;13.10;;;4.40;;
67248;SDS011;63247;54.300;18.592;2022-11-18T04:46:54;14.10;;;4.43;;
67248;SDS011;63247;54.300;18.592;2022-11-18T04:49:22;16.40;;;5.30;;
67248;SDS011;63247;54.300;18.592;2022-11-18T04:51:48;14.73;;;5.10;;
67248;SDS011;63247;54.300;18.592;2022-11-18T04:54:14;9.90;;;3.65;;
67248;SDS011;63247;54.300;18.592;2022-11-18T04:56:40;10.43;;;3.17;;
67248;SDS011;63247;54.300;18.592;2022-11-18T04:59:06;11.35;;;3.58;;
67248;SDS011;63247;54.300;18.592;2022-11-18T05:01:32;10.05;;;3.25;;
67248;SDS011;63247;54.300;18.592;2022-11-18T05:04:01;11.57;;;3.20;;
67248;SDS011;63247;54.300;18.592;2022-11-18T05:06:28;10.80;;;3.70;;
67248;SDS011;63247;54.300;18.592;2022-11-18T05:08:54;14.25;;;3.47;;
67248;SDS011;63247;54.300;18.592;2022-11-18T05:11:21;9.18;;;3.05;;
67248;SDS011;63247;54.300;18.592;2022-11-18T05:14:05;8.93;;;3.13;;
67248;SDS011;63247;54.300;18.592;2022-11-18T05:16:30;10.93;;;3.03;;
67248;SDS011;63247;54.300;18.592;2022-11-18T05:18:56;11.00;;;3.67;;
67248;SDS011;63247;54.300;18.592;2022-11-18T05:21:21;13.90;;;3.93;;
67248;SDS011;63247;54.300;18.592;2022-11-18T05:23:47;8.83;;;3.10;;
67248;SDS011;63247;54.300;18.592;2022-11-18T05:26:12;10.45;;;2.95;;
67248;SDS011;63247;54.300;18.592;2022-11-18T05:28:37;11.27;;;3.33;;
67248;SDS011;63247;54.300;18.592;2022-11-18T05:31:07;11.23;;;3.47;;
67248;SDS011;63247;54.300;18.592;2022-11-18T05:33:33;9.93;;;2.88;;
67248;SDS011;63247;54.300;18.592;2022-11-18T05:36:01;10.23;;;3.70;;
67248;SDS011;63247;54.300;18.592;2022-11-18T05:38:35;8.60;;;3.30;;
67248;SDS011;63247;54.300;18.592;2022-11-18T05:41:01;10.38;;;3.70;;
67248;SDS011;63247;54.300;18.592;2022-11-18T05:43:27;10.40;;;3.50;;
67248;SDS011;63247;54.300;18.592;2022-11-18T05:45:53;9.95;;;3.67;;
67248;SDS011;63247;54.300;18.592;2022-11-18T05:48:19;11.15;;;3.60;;
67248;SDS011;63247;54.300;18.592;2022-11-18T05:50:45;10.52;;;3.53;;
67248;SDS011;63247;54.300;18.592;2022-11-18T05:53:12;9.18;;;3.13;;
67248;SDS011;63247;54.300;18.592;2022-11-18T05:55:43;8.52;;;3.13;;
67248;SDS011;63247;54.300;18.592;2022-11-18T05:58:15;10.47;;;3.00;;
67248;SDS011;63247;54.300;18.592;2022-11-18T06:00:41;4.88;;;1.65;;
67248;SDS011;63247;54.300;18.592;2022-11-18T06:03:11;7.45;;;2.08;;
67248;SDS011;63247;54.300;18.592;2022-11-18T06:05:43;7.47;;;2.78;;
67248;SDS011;63247;54.300;18.592;2022-11-18T06:08:08;6.80;;;1.73;;
67248;SDS011;63247;54.300;18.592;2022-11-18T06:10:36;6.85;;;2.13;;
67248;SDS011;63247;54.300;18.592;2022-11-18T06:13:05;5.57;;;1.75;;
67248;SDS011;63247;54.300;18.592;2022-11-18T06:15:36;7.72;;;2.20;;
67248;SDS011;63247;54.300;18.592;2022-11-18T06:18:17;7.87;;;2.23;;
67248;SDS011;63247;54.300;18.592;2022-11-18T06:20:55;7.07;;;1.92;;
67248;SDS011;63247;54.300;18.592;2022-11-18T06:23:24;6.00;;;1.80;;
67248;SDS011;63247;54.300;18.592;2022-11-18T06:25:54;5.10;;;2.00;;
67248;SDS011;63247;54.300;18.592;2022-11-18T06:28:20;7.57;;;1.70;;
67248;SDS011;63247;54.300;18.592;2022-11-18T06:30:47;3.42;;;1.05;;
67248;SDS011;63247;54.300;18.592;2022-11-18T06:33:12;4.57;;;1.33;;
67248;SDS011;63247;54.300;18.592;2022-11-18T06:35:38;2.97;;;0.90;;
67248;SDS011;63247;54.300;18.592;2022-11-18T06:38:05;3.95;;;1.40;;
67248;SDS011;63247;54.300;18.592;2022-11-18T06:40:31;4.97;;;1.50;;
67248;SDS011;63247;54.300;18.592;2022-11-18T06:42:56;4.57;;;1.20;;
67248;SDS011;63247;54.300;18.592;2022-11-18T06:45:40;3.73;;;0.83;;
67248;SDS011;63247;54.300;18.592;2022-11-18T06:48:25;1.95;;;0.50;;
67248;SDS011;63247;54.300;18.592;2022-11-18T06:50:51;3.08;;;0.60;;
67248;SDS011;63247;54.300;18.592;2022-11-18T06:53:16;2.03;;;0.70;;
67248;SDS011;63247;54.300;18.592;2022-11-18T06:55:42;2.80;;;0.60;;
67248;SDS011;63247;54.300;18.592;2022-11-18T06:58:07;2.43;;;0.60;;
67248;SDS011;63247;54.300;18.592;2022-11-18T07:00:33;2.50;;;0.70;;
67248;SDS011;63247;54.300;18.592;2022-11-18T07:02:58;4.53;;;0.70;;
67248;SDS011;63247;54.300;18.592;2022-11-18T07:05:26;2.60;;;0.57;;
67248;SDS011;63247;54.300;18.592;2022-11-18T07:07:51;2.38;;;0.68;;
67248;SDS011;63247;54.300;18.592;2022-11-18T07:10:17;2.73;;;0.70;;
67248;SDS011;63247;54.300;18.592;2022-11-18T07:12:42;2.37;;;0.50;;
67248;SDS011;63247;54.300;18.592;2022-11-18T07:15:08;5.00;;;0.73;;
67248;SDS011;63247;54.300;18.592;2022-11-18T07:17:33;4.20;;;1.02;;
67248;SDS011;63247;54.300;18.592;2022-11-18T07:19:59;3.33;;;1.00;;
67248;SDS011;63247;54.300;18.592;2022-11-18T07:22:24;2.50;;;0.70;;
67248;SDS011;63247;54.300;18.592;2022-11-18T07:24:50;2.78;;;0.45;;
67248;SDS011;63247;54.300;18.592;2022-11-18T07:27:15;2.77;;;0.80;;
67248;SDS011;63247;54.300;18.592;2022-11-18T07:29:41;2.47;;;0.50;;
67248;SDS011;63247;54.300;18.592;2022-11-18T07:32:06;1.73;;;0.30;;
67248;SDS011;63247;54.300;18.592;2022-11-18T07:34:31;2.28;;;0.60;;
67248;SDS011;63247;54.300;18.592;2022-11-18T07:36:57;3.10;;;0.60;;
67248;SDS011;63247;54.300;18.592;2022-11-18T07:39:22;4.00;;;0.73;;
67248;SDS011;63247;54.300;18.592;2022-11-18T07:41:48;2.20;;;0.53;;
67248;SDS011;63247;54.300;18.592;2022-11-18T07:44:13;2.10;;;0.50;;
67248;SDS011;63247;54.300;18.592;2022-11-18T07:46:41;1.65;;;0.40;;
67248;SDS011;63247;54.300;18.592;2022-11-18T07:49:07;2.15;;;0.45;;
67248;SDS011;63247;54.300;18.592;2022-11-18T07:51:36;3.90;;;0.82;;
67248;SDS011;63247;54.300;18.592;2022-11-18T07:54:07;5.47;;;0.80;;
67248;SDS011;63247;54.300;18.592;2022-11-18T07:56:33;6.65;;;0.50;;
67248;SDS011;63247;54.300;18.592;2022-11-18T07:58:58;1.20;;;0.30;;
67248;SDS011;63247;54.300;18.592;2022-11-18T08:01:24;3.22;;;0.75;;
67248;SDS011;63247;54.300;18.592;2022-11-18T08:03:54;1.73;;;0.30;;
67248;SDS011;63247;54.300;18.592;2022-11-18T08:06:21;2.42;;;0.60;;
67248;SDS011;63247;54.300;18.592;2022-11-18T08:08:46;3.10;;;0.63;;
67248;SDS011;63247;54.300;18.592;2022-11-18T08:11:13;2.80;;;0.65;;
67248;SDS011;63247;54.300;18.592;2022-11-18T08:13:41;2.17;;;0.40;;
67248;SDS011;63247;54.300;18.592;2022-11-18T08:16:14;2.33;;;0.50;;
67248;SDS011;63247;54.300;18.592;2022-11-18T08:18:44;2.60;;;0.60;;
67248;SDS011;63247;54.300;18.592;2022-11-18T08:21:10;3.08;;;0.50;;
67248;SDS011;63247;54.300;18.592;2022-11-18T08:23:36;3.08;;;0.80;;
67248;SDS011;63247;54.300;18.592;2022-11-18T08:26:03;2.83;;;0.77;;
67248;SDS011;63247;54.300;18.592;2022-11-18T08:28:30;3.42;;;0.82;;
67248;SDS011;63247;54.300;18.592;2022-11-18T08:30:56;3.13;;;0.68;;
67248;SDS011;63247;54.300;18.592;2022-11-18T08:33:22;3.43;;;0.80;;
67248;SDS011;63247;54.300;18.592;2022-11-18T08:35:47;3.90;;;0.90;;
67248;SDS011;63247;54.300;18.592;2022-11-18T08:38:13;2.53;;;0.60;;
67248;SDS011;63247;54.300;18.592;2022-11-18T08:40:39;3.60;;;0.90;;
67248;SDS011;63247;54.300;18.592;2022-11-18T08:43:09;2.33;;;0.60;;
67248;SDS011;63247;54.300;18.592;2022-11-18T08:45:36;3.83;;;0.70;;
67248;SDS011;63247;54.300;18.592;2022-11-18T08:48:04;8.35;;;2.45;;
67248;SDS011;63247;54.300;18.592;2022-11-18T08:50:30;6.57;;;2.42;;
67248;SDS011;63247;54.300;18.592;2022-11-18T08:52:55;8.67;;;3.37;;
67248;SDS011;63247;54.300;18.592;2022-11-18T08:55:21;5.97;;;1.47;;
67248;SDS011;63247;54.300;18.592;2022-11-18T08:57:47;7.95;;;1.85;;
67248;SDS011;63247;54.300;18.592;2022-11-18T09:00:12;2.17;;;0.63;;
67248;SDS011;63247;54.300;18.592;2022-11-18T09:02:38;2.92;;;0.75;;
67248;SDS011;63247;54.300;18.592;2022-11-18T09:05:04;3.15;;;0.88;;
67248;SDS011;63247;54.300;18.592;2022-11-18T09:07:30;2.70;;;0.57;;
67248;SDS011;63247;54.300;18.592;2022-11-18T09:09:55;4.40;;;1.15;;
67248;SDS011;63247;54.300;18.592;2022-11-18T09:12:20;5.13;;;1.23;;
67248;SDS011;63247;54.300;18.592;2022-11-18T09:14:49;6.10;;;1.70;;
67248;SDS011;63247;54.300;18.592;2022-11-18T09:17:14;6.60;;;1.90;;
67248;SDS011;63247;54.300;18.592;2022-11-18T09:19:40;6.47;;;2.73;;
67248;SDS011;63247;54.300;18.592;2022-11-18T09:22:06;7.65;;;2.45;;
67248;SDS011;63247;54.300;18.592;2022-11-18T09:24:32;7.05;;;1.70;;
67248;SDS011;63247;54.300;18.592;2022-11-18T09:26:58;6.63;;;2.20;;
67248;SDS011;63247;54.300;18.592;2022-11-18T09:29:28;4.32;;;1.30;;
67248;SDS011;63247;54.300;18.592;2022-11-18T09:31:53;5.57;;;1.90;;
67248;SDS011;63247;54.300;18.592;2022-11-18T09:34:19;4.63;;;1.70;;
67248;SDS011;63247;54.300;18.592;2022-11-18T09:36:45;7.53;;;3.03;;
67248;SDS011;63247;54.300;18.592;2022-11-18T09:39:11;3.65;;;1.30;;
67248;SDS011;63247;54.300;18.592;2022-11-18T09:41:39;6.20;;;2.03;;
67248;SDS011;63247;54.300;18.592;2022-11-18T09:45:10;3.60;;;1.25;;
67248;SDS011;63247;54.300;18.592;2022-11-18T09:47:29;3.20;;;1.00;;
67248;SDS011;63247;54.300;18.592;2022-11-18T09:50:03;3.65;;;1.50;;
67248;SDS011;63247;54.300;18.592;2022-11-18T09:52:43;3.88;;;1.23;;
67248;SDS011;63247;54.300;18.592;2022-11-18T09:55:14;3.85;;;1.30;;
67248;SDS011;63247;54.300;18.592;2022-11-18T09:57:43;6.40;;;1.98;;
67248;SDS011;63247;54.300;18.592;2022-11-18T10:05:18;5.15;;;1.50;;
67248;SDS011;63247;54.300;18.592;2022-11-18T10:18:29;3.53;;;1.30;;
67248;SDS011;63247;54.300;18.592;2022-11-18T10:24:01;3.42;;;1.17;;
67248;SDS011;63247;54.300;18.592;2022-11-18T10:26:36;5.00;;;1.63;;
67248;SDS011;63247;54.300;18.592;2022-11-18T10:29:03;3.40;;;1.08;;
67248;SDS011;63247;54.300;18.592;2022-11-18T10:31:35;3.65;;;1.20;;
67248;SDS011;63247;54.300;18.592;2022-11-18T10:34:04;3.97;;;1.10;;
67248;SDS011;63247;54.300;18.592;2022-11-18T10:36:34;2.30;;;0.75;;
67248;SDS011;63247;54.300;18.592;2022-11-18T10:41:36;4.53;;;0.98;;
67248;SDS011;63247;54.300;18.592;2022-11-18T10:44:04;3.15;;;0.80;;
67248;SDS011;63247;54.300;18.592;2022-11-18T10:46:31;5.00;;;1.20;;
67248;SDS011;63247;54.300;18.592;2022-11-18T10:51:44;7.57;;;1.92;;
67248;SDS011;63247;54.300;18.592;2022-11-18T10:54:28;6.25;;;2.63;;
67248;SDS011;63247;54.300;18.592;2022-11-18T10:59:32;4.30;;;0.90;;
67248;SDS011;63247;54.300;18.592;2022-11-18T11:02:10;3.22;;;1.05;;
67248;SDS011;63247;54.300;18.592;2022-11-18T11:04:50;3.57;;;1.10;;
67248;SDS011;63247;54.300;18.592;2022-11-18T11:07:36;2.92;;;0.73;;
67248;SDS011;63247;54.300;18.592;2022-11-18T11:12:31;9.75;;;3.08;;
67248;SDS011;63247;54.300;18.592;2022-11-18T11:15:18;7.05;;;2.20;;
67248;SDS011;63247;54.300;18.592;2022-11-18T11:18:02;3.63;;;1.27;;
67248;SDS011;63247;54.300;18.592;2022-11-18T11:20:50;10.88;;;3.38;;
67248;SDS011;63247;54.300;18.592;2022-11-18T11:23:16;12.32;;;2.72;;
67248;SDS011;63247;54.300;18.592;2022-11-18T11:25:51;6.78;;;1.65;;
67248;SDS011;63247;54.300;18.592;2022-11-18T11:30:53;5.25;;;1.63;;
67248;SDS011;63247;54.300;18.592;2022-11-18T11:36:13;4.40;;;1.45;;
67248;SDS011;63247;54.300;18.592;2022-11-18T11:44:34;9.02;;;3.33;;
67248;SDS011;63247;54.300;18.592;2022-11-18T12:01:21;4.87;;;1.57;;
67248;SDS011;63247;54.300;18.592;2022-11-18T12:06:58;7.55;;;1.95;;
67248;SDS011;63247;54.300;18.592;2022-11-18T12:10:18;5.15;;;1.85;;
67248;SDS011;63247;54.300;18.592;2022-11-18T12:12:36;5.17;;;1.33;;
67248;SDS011;63247;54.300;18.592;2022-11-18T12:20:50;4.38;;;1.60;;
67248;SDS011;63247;54.300;18.592;2022-11-18T12:23:18;4.75;;;1.63;;
67248;SDS011;63247;54.300;18.592;2022-11-18T12:28:55;4.35;;;1.25;;
67248;SDS011;63247;54.300;18.592;2022-11-18T12:33:44;3.85;;;1.73;;
67248;SDS011;63247;54.300;18.592;2022-11-18T12:36:27;3.55;;;1.42;;
67248;SDS011;63247;54.300;18.592;2022-11-18T12:38:56;4.93;;;1.73;;
67248;SDS011;63247;54.300;18.592;2022-11-18T12:44:23;3.65;;;1.20;;
67248;SDS011;63247;54.300;18.592;2022-11-18T12:46:52;10.85;;;1.70;;
67248;SDS011;63247;54.300;18.592;2022-11-18T12:54:19;4.88;;;1.60;;
67248;SDS011;63247;54.300;18.592;2022-11-18T12:56:46;5.97;;;2.08;;
67248;SDS011;63247;54.300;18.592;2022-11-18T12:59:13;4.88;;;1.60;;
67248;SDS011;63247;54.300;18.592;2022-11-18T13:01:39;6.57;;;2.33;;
67248;SDS011;63247;54.300;18.592;2022-11-18T13:04:06;3.35;;;1.50;;
67248;SDS011;63247;54.300;18.592;2022-11-18T13:06:43;6.35;;;1.98;;
67248;SDS011;63247;54.300;18.592;2022-11-18T13:09:16;7.43;;;2.38;;
67248;SDS011;63247;54.300;18.592;2022-11-18T13:11:53;7.05;;;2.00;;
67248;SDS011;63247;54.300;18.592;2022-11-18T13:14:31;5.75;;;1.85;;
67248;SDS011;63247;54.300;18.592;2022-11-18T13:22:55;5.35;;;1.77;;
67248;SDS011;63247;54.300;18.592;2022-11-18T13:25:41;4.15;;;1.52;;
67248;SDS011;63247;54.300;18.592;2022-11-18T13:30:51;4.63;;;1.37;;
67248;SDS011;63247;54.300;18.592;2022-11-18T13:33:33;6.97;;;1.70;;
67248;SDS011;63247;54.300;18.592;2022-11-18T13:36:00;2.75;;;0.95;;
67248;SDS011;63247;54.300;18.592;2022-11-18T13:38:26;4.43;;;1.20;;
67248;SDS011;63247;54.300;18.592;2022-11-18T13:40:51;5.37;;;1.60;;
67248;SDS011;63247;54.300;18.592;2022-11-18T13:43:32;19.95;;;4.82;;
67248;SDS011;63247;54.300;18.592;2022-11-18T13:45:59;15.23;;;3.57;;
67248;SDS011;63247;54.300;18.592;2022-11-18T13:48:26;3.88;;;1.10;;
67248;SDS011;63247;54.300;18.592;2022-11-18T13:50:53;59.65;;;14.18;;
67248;SDS011;63247;54.300;18.592;2022-11-18T13:53:28;14.25;;;3.38;;
67248;SDS011;63247;54.300;18.592;2022-11-18T13:58:52;8.40;;;2.60;;
67248;SDS011;63247;54.300;18.592;2022-11-18T14:03:54;25.48;;;4.97;;
67248;SDS011;63247;54.300;18.592;2022-11-18T14:09:14;18.92;;;3.88;;
67248;SDS011;63247;54.300;18.592;2022-11-18T14:14:33;36.50;;;7.32;;
67248;SDS011;63247;54.300;18.592;2022-11-18T14:19:37;20.48;;;5.35;;
67248;SDS011;63247;54.300;18.592;2022-11-18T14:22:05;9.73;;;2.53;;
67248;SDS011;63247;54.300;18.592;2022-11-18T14:24:35;7.77;;;2.27;;
67248;SDS011;63247;54.300;18.592;2022-11-18T14:27:26;12.75;;;3.53;;
67248;SDS011;63247;54.300;18.592;2022-11-18T14:29:58;6.70;;;1.80;;
67248;SDS011;63247;54.300;18.592;2022-11-18T14:32:26;8.27;;;2.58;;
67248;SDS011;63247;54.300;18.592;2022-11-18T14:34:58;5.87;;;2.00;;
67248;SDS011;63247;54.300;18.592;2022-11-18T14:37:24;6.10;;;2.22;;
67248;SDS011;63247;54.300;18.592;2022-11-18T14:39:54;8.52;;;3.17;;
67248;SDS011;63247;54.300;18.592;2022-11-18T14:42:21;7.65;;;2.28;;
67248;SDS011;63247;54.300;18.592;2022-11-18T14:44:47;5.05;;;1.60;;
67248;SDS011;63247;54.300;18.592;2022-11-18T14:49:48;7.25;;;2.42;;
67248;SDS011;63247;54.300;18.592;2022-11-18T14:52:15;6.68;;;1.70;;
67248;SDS011;63247;54.300;18.592;2022-11-18T14:54:43;4.97;;;1.88;;
67248;SDS011;63247;54.300;18.592;2022-11-18T14:57:09;6.30;;;2.05;;
67248;SDS011;63247;54.300;18.592;2022-11-18T14:59:39;5.90;;;1.93;;
67248;SDS011;63247;54.300;18.592;2022-11-18T15:02:05;5.70;;;1.45;;
67248;SDS011;63247;54.300;18.592;2022-11-18T15:04:36;6.07;;;2.10;;
67248;SDS011;63247;54.300;18.592;2022-11-18T15:07:02;5.82;;;1.48;;
67248;SDS011;63247;54.300;18.592;2022-11-18T15:09:27;3.87;;;1.03;;
67248;SDS011;63247;54.300;18.592;2022-11-18T15:11:53;4.47;;;0.87;;
67248;SDS011;63247;54.300;18.592;2022-11-18T15:14:18;4.03;;;0.90;;
67248;SDS011;63247;54.300;18.592;2022-11-18T15:16:43;42.37;;;8.67;;
67248;SDS011;63247;54.300;18.592;2022-11-18T15:19:11;14.68;;;3.38;;
67248;SDS011;63247;54.300;18.592;2022-11-18T15:21:39;22.93;;;6.30;;
67248;SDS011;63247;54.300;18.592;2022-11-18T15:24:04;29.60;;;7.47;;
67248;SDS011;63247;54.300;18.592;2022-11-18T15:26:34;49.10;;;10.23;;
67248;SDS011;63247;54.300;18.592;2022-11-18T15:29:02;3.45;;;1.13;;
67248;SDS011;63247;54.300;18.592;2022-11-18T15:31:28;6.32;;;1.88;;
67248;SDS011;63247;54.300;18.592;2022-11-18T15:33:53;5.80;;;1.47;;
67248;SDS011;63247;54.300;18.592;2022-11-18T15:36:22;6.77;;;1.90;;
67248;SDS011;63247;54.300;18.592;2022-11-18T15:38:50;4.88;;;1.48;;
67248;SDS011;63247;54.300;18.592;2022-11-18T15:41:17;7.07;;;2.28;;
67248;SDS011;63247;54.300;18.592;2022-11-18T15:43:45;5.72;;;2.25;;
67248;SDS011;63247;54.300;18.592;2022-11-18T15:46:13;6.50;;;1.97;;
67248;SDS011;63247;54.300;18.592;2022-11-18T15:48:40;10.98;;;3.65;;
67248;SDS011;63247;54.300;18.592;2022-11-18T15:51:05;7.65;;;2.83;;
67248;SDS011;63247;54.300;18.592;2022-11-18T15:53:32;8.93;;;2.30;;
67248;SDS011;63247;54.300;18.592;2022-11-18T16:01:23;15.53;;;5.07;;
67248;SDS011;63247;54.300;18.592;2022-11-18T16:03:51;6.47;;;1.92;;
67248;SDS011;63247;54.300;18.592;2022-11-18T16:06:16;8.65;;;2.63;;
67248;SDS011;63247;54.300;18.592;2022-11-18T16:08:42;5.70;;;1.90;;
67248;SDS011;63247;54.300;18.592;2022-11-18T16:11:09;7.07;;;2.17;;
67248;SDS011;63247;54.300;18.592;2022-11-18T16:16:28;6.78;;;2.33;;
67248;SDS011;63247;54.300;18.592;2022-11-18T16:18:56;9.85;;;2.72;;
67248;SDS011;63247;54.300;18.592;2022-11-18T16:21:22;6.07;;;2.10;;
67248;SDS011;63247;54.300;18.592;2022-11-18T16:23:49;5.95;;;1.65;;
67248;SDS011;63247;54.300;18.592;2022-11-18T16:26:17;8.75;;;3.40;;
67248;SDS011;63247;54.300;18.592;2022-11-18T16:28:43;5.00;;;1.93;;
67248;SDS011;63247;54.300;18.592;2022-11-18T16:31:08;4.83;;;1.73;;
67248;SDS011;63247;54.300;18.592;2022-11-18T16:33:52;7.20;;;2.28;;
67248;SDS011;63247;54.300;18.592;2022-11-18T16:36:23;5.93;;;2.20;;
67248;SDS011;63247;54.300;18.592;2022-11-18T16:38:50;6.80;;;2.13;;
67248;SDS011;63247;54.300;18.592;2022-11-18T16:41:16;7.30;;;2.50;;
67248;SDS011;63247;54.300;18.592;2022-11-18T16:43:57;8.37;;;3.80;;
67248;SDS011;63247;54.300;18.592;2022-11-18T16:46:23;11.32;;;4.20;;
67248;SDS011;63247;54.300;18.592;2022-11-18T16:48:52;4.93;;;1.67;;
67248;SDS011;63247;54.300;18.592;2022-11-18T16:51:21;7.07;;;2.67;;
67248;SDS011;63247;54.300;18.592;2022-11-18T16:53:52;7.75;;;2.88;;